sensor_id;sensor_type;location;lat;lon;timestamp;P1;durP1;ratioP1;P2;durP2;ratioP2
9459;SDS011;4768;42.664;23.240;2023-05-27T00:00:33;5.00;;;3.30;;
9459;SDS011;4768;42.664;23.240;2023-05-27T00:03:00;4.50;;;2.97;;
9459;SDS011;4768;42.664;23.240;2023-05-27T00:05:28;3.83;;;3.40;;
9459;SDS011;4768;42.664;23.240;2023-05-27T00:07:55;3.73;;;3.03;;
9459;SDS011;4768;42.664;23.240;2023-05-27T00:10:22;3.90;;;3.17;;
9459;SDS011;4768;42.664;23.240;2023-05-27T00:12:48;4.17;;;3.13;;
9459;SDS011;4768;42.664;23.240;2023-05-27T00:15:16;5.10;;;3.97;;
9459;SDS011;4768;42.664;23.240;2023-05-27T00:17:43;8.70;;;4.90;;
9459;SDS011;4768;42.664;23.240;2023-05-27T00:20:10;9.83;;;5.33;;
9459;SDS011;4768;42.664;23.240;2023-05-27T00:22:39;7.03;;;5.23;;
9459;SDS011;4768;42.664;23.240;2023-05-27T00:25:06;7.13;;;4.90;;
9459;SDS011;4768;42.664;23.240;2023-05-27T00:27:34;7.63;;;5.17;;
9459;SDS011;4768;42.664;23.240;2023-05-27T00:30:01;6.13;;;5.10;;
9459;SDS011;4768;42.664;23.240;2023-05-27T00:32:28;7.23;;;5.50;;
9459;SDS011;4768;42.664;23.240;2023-05-27T00:34:54;5.77;;;4.50;;
9459;SDS011;4768;42.664;23.240;2023-05-27T00:37:21;6.33;;;4.47;;
9459;SDS011;4768;42.664;23.240;2023-05-27T00:39:49;5.37;;;3.80;;
9459;SDS011;4768;42.664;23.240;2023-05-27T00:42:16;3.53;;;2.67;;
9459;SDS011;4768;42.664;23.240;2023-05-27T00:44:43;3.60;;;3.20;;
9459;SDS011;4768;42.664;23.240;2023-05-27T00:47:09;3.67;;;2.70;;
9459;SDS011;4768;42.664;23.240;2023-05-27T00:49:36;3.17;;;2.50;;
9459;SDS011;4768;42.664;23.240;2023-05-27T00:52:04;3.33;;;3.03;;
9459;SDS011;4768;42.664;23.240;2023-05-27T00:54:31;3.50;;;2.80;;
9459;SDS011;4768;42.664;23.240;2023-05-27T00:56:59;3.30;;;2.40;;
9459;SDS011;4768;42.664;23.240;2023-05-27T00:59:27;3.37;;;2.60;;
9459;SDS011;4768;42.664;23.240;2023-05-27T01:01:54;1.77;;;1.47;;
9459;SDS011;4768;42.664;23.240;2023-05-27T01:04:21;1.80;;;1.60;;
9459;SDS011;4768;42.664;23.240;2023-05-27T01:06:50;2.03;;;1.50;;
9459;SDS011;4768;42.664;23.240;2023-05-27T01:09:33;2.63;;;1.83;;
9459;SDS011;4768;42.664;23.240;2023-05-27T01:12:08;1.30;;;1.20;;
9459;SDS011;4768;42.664;23.240;2023-05-27T01:14:40;2.17;;;1.90;;
9459;SDS011;4768;42.664;23.240;2023-05-27T01:17:10;1.87;;;1.63;;
9459;SDS011;4768;42.664;23.240;2023-05-27T01:19:41;1.80;;;1.70;;
9459;SDS011;4768;42.664;23.240;2023-05-27T01:22:11;2.10;;;1.80;;
9459;SDS011;4768;42.664;23.240;2023-05-27T01:24:40;2.10;;;1.83;;
9459;SDS011;4768;42.664;23.240;2023-05-27T01:27:07;2.30;;;1.77;;
9459;SDS011;4768;42.664;23.240;2023-05-27T01:29:37;2.13;;;1.93;;
9459;SDS011;4768;42.664;23.240;2023-05-27T01:32:05;1.80;;;1.70;;
9459;SDS011;4768;42.664;23.240;2023-05-27T01:34:36;2.67;;;2.10;;
9459;SDS011;4768;42.664;23.240;2023-05-27T01:37:07;2.10;;;1.77;;
9459;SDS011;4768;42.664;23.240;2023-05-27T01:39:41;1.53;;;1.43;;
9459;SDS011;4768;42.664;23.240;2023-05-27T01:42:08;2.50;;;1.70;;
9459;SDS011;4768;42.664;23.240;2023-05-27T01:44:35;1.70;;;1.60;;
9459;SDS011;4768;42.664;23.240;2023-05-27T01:47:03;1.47;;;1.33;;
9459;SDS011;4768;42.664;23.240;2023-05-27T01:49:30;1.67;;;1.47;;
9459;SDS011;4768;42.664;23.240;2023-05-27T01:51:57;1.90;;;1.50;;
9459;SDS011;4768;42.664;23.240;2023-05-27T01:54:24;1.80;;;1.47;;
9459;SDS011;4768;42.664;23.240;2023-05-27T01:56:52;1.70;;;1.60;;
9459;SDS011;4768;42.664;23.240;2023-05-27T01:59:19;1.40;;;1.27;;
9459;SDS011;4768;42.664;23.240;2023-05-27T02:01:45;1.17;;;1.13;;
9459;SDS011;4768;42.664;23.240;2023-05-27T02:04:12;1.70;;;1.50;;
9459;SDS011;4768;42.664;23.240;2023-05-27T02:06:39;1.27;;;1.17;;
9459;SDS011;4768;42.664;23.240;2023-05-27T02:09:06;1.30;;;1.20;;
9459;SDS011;4768;42.664;23.240;2023-05-27T02:11:33;1.67;;;1.37;;
9459;SDS011;4768;42.664;23.240;2023-05-27T02:14:01;1.20;;;1.10;;
9459;SDS011;4768;42.664;23.240;2023-05-27T02:16:27;1.30;;;1.20;;
9459;SDS011;4768;42.664;23.240;2023-05-27T02:18:55;4.10;;;1.17;;
9459;SDS011;4768;42.664;23.240;2023-05-27T02:21:22;1.50;;;1.30;;
9459;SDS011;4768;42.664;23.240;2023-05-27T02:23:49;1.50;;;1.40;;
9459;SDS011;4768;42.664;23.240;2023-05-27T02:26:16;1.90;;;1.50;;
9459;SDS011;4768;42.664;23.240;2023-05-27T02:28:43;1.53;;;1.40;;
9459;SDS011;4768;42.664;23.240;2023-05-27T02:31:11;1.30;;;1.20;;
9459;SDS011;4768;42.664;23.240;2023-05-27T02:33:38;5.17;;;1.30;;
9459;SDS011;4768;42.664;23.240;2023-05-27T02:36:05;1.30;;;1.20;;
9459;SDS011;4768;42.664;23.240;2023-05-27T02:38:32;1.50;;;1.40;;
9459;SDS011;4768;42.664;23.240;2023-05-27T02:40:59;1.30;;;1.20;;
9459;SDS011;4768;42.664;23.240;2023-05-27T02:43:25;1.77;;;1.30;;
9459;SDS011;4768;42.664;23.240;2023-05-27T02:45:52;2.00;;;1.53;;
9459;SDS011;4768;42.664;23.240;2023-05-27T02:48:20;1.20;;;1.10;;
9459;SDS011;4768;42.664;23.240;2023-05-27T02:50:47;1.50;;;1.23;;
9459;SDS011;4768;42.664;23.240;2023-05-27T02:53:14;4.73;;;1.20;;
9459;SDS011;4768;42.664;23.240;2023-05-27T02:55:41;1.50;;;1.40;;
9459;SDS011;4768;42.664;23.240;2023-05-27T02:58:07;2.83;;;1.30;;
9459;SDS011;4768;42.664;23.240;2023-05-27T03:00:34;1.67;;;1.43;;
9459;SDS011;4768;42.664;23.240;2023-05-27T03:03:01;1.30;;;1.20;;
9459;SDS011;4768;42.664;23.240;2023-05-27T03:05:31;1.30;;;1.20;;
9459;SDS011;4768;42.664;23.240;2023-05-27T03:07:58;1.40;;;1.20;;
9459;SDS011;4768;42.664;23.240;2023-05-27T03:10:25;1.37;;;1.27;;
9459;SDS011;4768;42.664;23.240;2023-05-27T03:12:53;1.60;;;1.50;;
9459;SDS011;4768;42.664;23.240;2023-05-27T03:15:20;1.93;;;1.70;;
9459;SDS011;4768;42.664;23.240;2023-05-27T03:17:47;1.40;;;1.30;;
9459;SDS011;4768;42.664;23.240;2023-05-27T03:20:14;1.50;;;1.37;;
9459;SDS011;4768;42.664;23.240;2023-05-27T03:22:43;1.57;;;1.43;;
9459;SDS011;4768;42.664;23.240;2023-05-27T03:25:10;1.70;;;1.23;;
9459;SDS011;4768;42.664;23.240;2023-05-27T03:27:37;1.10;;;1.10;;
9459;SDS011;4768;42.664;23.240;2023-05-27T03:30:05;1.47;;;1.20;;
9459;SDS011;4768;42.664;23.240;2023-05-27T03:32:32;3.63;;;1.40;;
9459;SDS011;4768;42.664;23.240;2023-05-27T03:34:59;1.30;;;1.20;;
9459;SDS011;4768;42.664;23.240;2023-05-27T03:37:26;1.97;;;1.20;;
9459;SDS011;4768;42.664;23.240;2023-05-27T03:39:54;1.90;;;1.47;;
9459;SDS011;4768;42.664;23.240;2023-05-27T03:42:22;1.23;;;1.10;;
9459;SDS011;4768;42.664;23.240;2023-05-27T03:44:49;1.47;;;1.20;;
9459;SDS011;4768;42.664;23.240;2023-05-27T03:47:15;1.73;;;1.40;;
9459;SDS011;4768;42.664;23.240;2023-05-27T03:49:45;2.13;;;1.30;;
9459;SDS011;4768;42.664;23.240;2023-05-27T03:52:12;1.20;;;1.10;;
9459;SDS011;4768;42.664;23.240;2023-05-27T03:54:39;1.57;;;1.40;;
9459;SDS011;4768;42.664;23.240;2023-05-27T03:57:08;1.03;;;1.03;;
9459;SDS011;4768;42.664;23.240;2023-05-27T03:59:35;1.30;;;1.20;;
9459;SDS011;4768;42.664;23.240;2023-05-27T04:02:02;1.80;;;1.43;;
9459;SDS011;4768;42.664;23.240;2023-05-27T04:04:29;1.60;;;1.50;;
9459;SDS011;4768;42.664;23.240;2023-05-27T04:06:55;1.87;;;1.60;;
9459;SDS011;4768;42.664;23.240;2023-05-27T04:09:22;1.10;;;1.03;;
9459;SDS011;4768;42.664;23.240;2023-05-27T04:11:49;1.40;;;1.30;;
9459;SDS011;4768;42.664;23.240;2023-05-27T04:14:18;1.47;;;1.20;;
9459;SDS011;4768;42.664;23.240;2023-05-27T04:16:45;1.37;;;1.20;;
9459;SDS011;4768;42.664;23.240;2023-05-27T04:19:11;2.47;;;1.47;;
9459;SDS011;4768;42.664;23.240;2023-05-27T04:21:38;1.30;;;1.10;;
9459;SDS011;4768;42.664;23.240;2023-05-27T04:24:05;1.80;;;1.47;;
9459;SDS011;4768;42.664;23.240;2023-05-27T04:26:32;1.63;;;1.53;;
9459;SDS011;4768;42.664;23.240;2023-05-27T04:28:59;1.40;;;1.30;;
9459;SDS011;4768;42.664;23.240;2023-05-27T04:31:27;1.60;;;1.40;;
9459;SDS011;4768;42.664;23.240;2023-05-27T04:33:54;1.83;;;1.30;;
9459;SDS011;4768;42.664;23.240;2023-05-27T04:36:21;1.80;;;1.40;;
9459;SDS011;4768;42.664;23.240;2023-05-27T04:38:50;1.70;;;1.60;;
9459;SDS011;4768;42.664;23.240;2023-05-27T04:41:18;1.70;;;1.40;;
9459;SDS011;4768;42.664;23.240;2023-05-27T04:43:46;1.87;;;1.33;;
9459;SDS011;4768;42.664;23.240;2023-05-27T04:46:14;1.57;;;1.47;;
9459;SDS011;4768;42.664;23.240;2023-05-27T04:48:42;1.23;;;1.10;;
9459;SDS011;4768;42.664;23.240;2023-05-27T04:51:11;1.17;;;1.07;;
9459;SDS011;4768;42.664;23.240;2023-05-27T04:53:40;1.47;;;1.17;;
9459;SDS011;4768;42.664;23.240;2023-05-27T04:56:07;1.33;;;1.23;;
9459;SDS011;4768;42.664;23.240;2023-05-27T04:58:34;2.27;;;1.33;;
9459;SDS011;4768;42.664;23.240;2023-05-27T05:01:01;1.27;;;1.07;;
9459;SDS011;4768;42.664;23.240;2023-05-27T05:03:29;3.67;;;1.33;;
9459;SDS011;4768;42.664;23.240;2023-05-27T05:06:06;1.50;;;1.40;;
9459;SDS011;4768;42.664;23.240;2023-05-27T05:08:33;2.03;;;1.40;;
9459;SDS011;4768;42.664;23.240;2023-05-27T05:10:59;2.63;;;1.40;;
9459;SDS011;4768;42.664;23.240;2023-05-27T05:13:26;2.67;;;1.20;;
9459;SDS011;4768;42.664;23.240;2023-05-27T05:15:54;1.37;;;1.27;;
9459;SDS011;4768;42.664;23.240;2023-05-27T05:18:21;1.27;;;1.17;;
9459;SDS011;4768;42.664;23.240;2023-05-27T05:20:48;1.23;;;1.13;;
9459;SDS011;4768;42.664;23.240;2023-05-27T05:23:16;1.60;;;1.50;;
9459;SDS011;4768;42.664;23.240;2023-05-27T05:25:43;4.03;;;1.47;;
9459;SDS011;4768;42.664;23.240;2023-05-27T05:28:10;1.80;;;1.60;;
9459;SDS011;4768;42.664;23.240;2023-05-27T05:30:36;1.83;;;1.50;;
9459;SDS011;4768;42.664;23.240;2023-05-27T05:33:04;1.97;;;1.50;;
9459;SDS011;4768;42.664;23.240;2023-05-27T05:35:30;2.60;;;1.70;;
9459;SDS011;4768;42.664;23.240;2023-05-27T05:37:57;2.20;;;1.73;;
9459;SDS011;4768;42.664;23.240;2023-05-27T05:40:25;2.30;;;1.73;;
9459;SDS011;4768;42.664;23.240;2023-05-27T05:42:52;2.37;;;2.17;;
9459;SDS011;4768;42.664;23.240;2023-05-27T05:45:18;2.97;;;1.70;;
9459;SDS011;4768;42.664;23.240;2023-05-27T05:47:45;2.13;;;1.90;;
9459;SDS011;4768;42.664;23.240;2023-05-27T05:50:12;2.17;;;1.80;;
9459;SDS011;4768;42.664;23.240;2023-05-27T05:52:39;2.90;;;2.10;;
9459;SDS011;4768;42.664;23.240;2023-05-27T05:55:06;3.53;;;2.30;;
9459;SDS011;4768;42.664;23.240;2023-05-27T05:57:34;2.00;;;1.80;;
9459;SDS011;4768;42.664;23.240;2023-05-27T06:00:01;2.17;;;1.97;;
9459;SDS011;4768;42.664;23.240;2023-05-27T06:02:29;2.70;;;1.93;;
9459;SDS011;4768;42.664;23.240;2023-05-27T06:04:55;2.60;;;2.20;;
9459;SDS011;4768;42.664;23.240;2023-05-27T06:07:25;2.63;;;2.27;;
9459;SDS011;4768;42.664;23.240;2023-05-27T06:09:52;3.63;;;2.70;;
9459;SDS011;4768;42.664;23.240;2023-05-27T06:12:19;3.67;;;2.47;;
9459;SDS011;4768;42.664;23.240;2023-05-27T06:14:47;2.23;;;2.03;;
9459;SDS011;4768;42.664;23.240;2023-05-27T06:17:14;3.03;;;2.30;;
9459;SDS011;4768;42.664;23.240;2023-05-27T06:19:40;2.93;;;2.60;;
9459;SDS011;4768;42.664;23.240;2023-05-27T06:22:07;3.47;;;2.43;;
9459;SDS011;4768;42.664;23.240;2023-05-27T06:24:34;3.10;;;2.80;;
9459;SDS011;4768;42.664;23.240;2023-05-27T06:27:00;3.13;;;2.73;;
9459;SDS011;4768;42.664;23.240;2023-05-27T06:29:28;2.60;;;2.40;;
9459;SDS011;4768;42.664;23.240;2023-05-27T06:31:56;3.13;;;2.50;;
9459;SDS011;4768;42.664;23.240;2023-05-27T06:34:22;2.93;;;2.40;;
9459;SDS011;4768;42.664;23.240;2023-05-27T06:36:49;2.67;;;2.30;;
9459;SDS011;4768;42.664;23.240;2023-05-27T06:39:16;2.50;;;2.30;;
9459;SDS011;4768;42.664;23.240;2023-05-27T06:41:42;3.23;;;2.83;;
9459;SDS011;4768;42.664;23.240;2023-05-27T06:44:09;2.70;;;2.50;;
9459;SDS011;4768;42.664;23.240;2023-05-27T06:46:36;3.80;;;2.80;;
9459;SDS011;4768;42.664;23.240;2023-05-27T06:49:04;3.23;;;2.73;;
9459;SDS011;4768;42.664;23.240;2023-05-27T06:51:31;3.30;;;2.87;;
9459;SDS011;4768;42.664;23.240;2023-05-27T06:53:58;3.00;;;2.70;;
9459;SDS011;4768;42.664;23.240;2023-05-27T06:56:24;3.57;;;3.03;;
9459;SDS011;4768;42.664;23.240;2023-05-27T06:58:51;4.73;;;3.40;;
9459;SDS011;4768;42.664;23.240;2023-05-27T07:01:18;3.93;;;3.10;;
9459;SDS011;4768;42.664;23.240;2023-05-27T07:03:45;4.63;;;3.40;;
9459;SDS011;4768;42.664;23.240;2023-05-27T07:06:14;5.50;;;2.90;;
9459;SDS011;4768;42.664;23.240;2023-05-27T07:08:41;4.10;;;3.03;;
9459;SDS011;4768;42.664;23.240;2023-05-27T07:11:08;3.83;;;3.10;;
9459;SDS011;4768;42.664;23.240;2023-05-27T07:13:34;3.57;;;3.00;;
9459;SDS011;4768;42.664;23.240;2023-05-27T07:16:01;4.33;;;3.00;;
9459;SDS011;4768;42.664;23.240;2023-05-27T07:18:28;4.87;;;3.13;;
9459;SDS011;4768;42.664;23.240;2023-05-27T07:20:54;5.03;;;3.23;;
9459;SDS011;4768;42.664;23.240;2023-05-27T07:23:23;4.07;;;3.07;;
9459;SDS011;4768;42.664;23.240;2023-05-27T07:25:49;4.73;;;3.40;;
9459;SDS011;4768;42.664;23.240;2023-05-27T07:28:16;3.57;;;3.27;;
9459;SDS011;4768;42.664;23.240;2023-05-27T07:30:43;4.00;;;3.37;;
9459;SDS011;4768;42.664;23.240;2023-05-27T07:33:10;4.20;;;3.60;;
9459;SDS011;4768;42.664;23.240;2023-05-27T07:35:37;6.37;;;3.70;;
9459;SDS011;4768;42.664;23.240;2023-05-27T07:38:03;4.37;;;3.37;;
9459;SDS011;4768;42.664;23.240;2023-05-27T07:40:31;5.57;;;3.90;;
9459;SDS011;4768;42.664;23.240;2023-05-27T07:42:58;4.80;;;3.37;;
9459;SDS011;4768;42.664;23.240;2023-05-27T07:45:25;4.23;;;3.27;;
9459;SDS011;4768;42.664;23.240;2023-05-27T07:47:52;4.10;;;3.10;;
9459;SDS011;4768;42.664;23.240;2023-05-27T07:50:18;3.60;;;3.20;;
9459;SDS011;4768;42.664;23.240;2023-05-27T07:52:45;5.13;;;3.67;;
9459;SDS011;4768;42.664;23.240;2023-05-27T07:55:12;4.20;;;3.80;;
9459;SDS011;4768;42.664;23.240;2023-05-27T07:57:40;4.70;;;3.87;;
9459;SDS011;4768;42.664;23.240;2023-05-27T08:00:09;3.50;;;3.13;;
9459;SDS011;4768;42.664;23.240;2023-05-27T08:02:36;4.30;;;3.17;;
9459;SDS011;4768;42.664;23.240;2023-05-27T08:05:03;4.20;;;3.60;;
9459;SDS011;4768;42.664;23.240;2023-05-27T08:07:30;6.13;;;3.60;;
9459;SDS011;4768;42.664;23.240;2023-05-27T08:09:57;3.47;;;3.00;;
9459;SDS011;4768;42.664;23.240;2023-05-27T08:12:24;3.17;;;2.87;;
9459;SDS011;4768;42.664;23.240;2023-05-27T08:14:52;3.67;;;2.90;;
9459;SDS011;4768;42.664;23.240;2023-05-27T08:17:19;2.97;;;2.70;;
9459;SDS011;4768;42.664;23.240;2023-05-27T08:19:45;2.87;;;2.60;;
9459;SDS011;4768;42.664;23.240;2023-05-27T08:22:12;3.70;;;2.53;;
9459;SDS011;4768;42.664;23.240;2023-05-27T08:24:39;3.17;;;2.40;;
9459;SDS011;4768;42.664;23.240;2023-05-27T08:27:14;2.53;;;2.20;;
9459;SDS011;4768;42.664;23.240;2023-05-27T08:29:41;2.13;;;1.93;;
9459;SDS011;4768;42.664;23.240;2023-05-27T08:32:10;3.00;;;2.43;;
9459;SDS011;4768;42.664;23.240;2023-05-27T08:34:37;2.20;;;2.00;;
9459;SDS011;4768;42.664;23.240;2023-05-27T08:37:06;2.80;;;2.20;;
9459;SDS011;4768;42.664;23.240;2023-05-27T08:39:33;2.90;;;2.07;;
9459;SDS011;4768;42.664;23.240;2023-05-27T08:41:59;3.33;;;2.07;;
9459;SDS011;4768;42.664;23.240;2023-05-27T08:44:27;2.67;;;2.03;;
9459;SDS011;4768;42.664;23.240;2023-05-27T08:46:54;2.63;;;2.43;;
9459;SDS011;4768;42.664;23.240;2023-05-27T08:49:23;3.07;;;2.40;;
9459;SDS011;4768;42.664;23.240;2023-05-27T08:51:52;2.60;;;2.40;;
9459;SDS011;4768;42.664;23.240;2023-05-27T08:54:22;3.43;;;2.33;;
9459;SDS011;4768;42.664;23.240;2023-05-27T08:56:50;3.07;;;2.07;;
9459;SDS011;4768;42.664;23.240;2023-05-27T08:59:21;4.57;;;2.50;;
9459;SDS011;4768;42.664;23.240;2023-05-27T09:01:48;2.30;;;2.10;;
9459;SDS011;4768;42.664;23.240;2023-05-27T09:04:16;2.50;;;2.27;;
9459;SDS011;4768;42.664;23.240;2023-05-27T09:06:44;2.93;;;2.63;;
9459;SDS011;4768;42.664;23.240;2023-05-27T09:09:11;3.03;;;2.53;;
9459;SDS011;4768;42.664;23.240;2023-05-27T09:11:38;2.80;;;2.40;;
9459;SDS011;4768;42.664;23.240;2023-05-27T09:14:06;3.07;;;2.67;;
9459;SDS011;4768;42.664;23.240;2023-05-27T09:16:32;3.67;;;2.87;;
9459;SDS011;4768;42.664;23.240;2023-05-27T09:18:59;3.77;;;2.90;;
9459;SDS011;4768;42.664;23.240;2023-05-27T09:21:26;2.93;;;2.63;;
9459;SDS011;4768;42.664;23.240;2023-05-27T09:23:56;3.83;;;2.73;;
9459;SDS011;4768;42.664;23.240;2023-05-27T09:26:24;3.43;;;2.53;;
9459;SDS011;4768;42.664;23.240;2023-05-27T09:28:50;3.40;;;2.83;;
9459;SDS011;4768;42.664;23.240;2023-05-27T09:31:17;2.77;;;2.57;;
9459;SDS011;4768;42.664;23.240;2023-05-27T09:33:48;2.90;;;2.60;;
9459;SDS011;4768;42.664;23.240;2023-05-27T09:36:19;4.27;;;3.03;;
9459;SDS011;4768;42.664;23.240;2023-05-27T09:38:47;4.30;;;3.03;;
9459;SDS011;4768;42.664;23.240;2023-05-27T09:41:22;5.00;;;2.93;;
9459;SDS011;4768;42.664;23.240;2023-05-27T09:43:53;3.50;;;3.07;;
9459;SDS011;4768;42.664;23.240;2023-05-27T09:46:21;4.97;;;2.87;;
9459;SDS011;4768;42.664;23.240;2023-05-27T09:48:49;2.83;;;2.60;;
9459;SDS011;4768;42.664;23.240;2023-05-27T09:51:15;3.93;;;3.17;;
9459;SDS011;4768;42.664;23.240;2023-05-27T09:53:42;3.63;;;3.00;;
9459;SDS011;4768;42.664;23.240;2023-05-27T09:56:12;3.97;;;2.93;;
9459;SDS011;4768;42.664;23.240;2023-05-27T09:58:41;4.03;;;3.00;;
9459;SDS011;4768;42.664;23.240;2023-05-27T10:01:08;3.53;;;3.23;;
9459;SDS011;4768;42.664;23.240;2023-05-27T10:03:36;3.73;;;2.90;;
9459;SDS011;4768;42.664;23.240;2023-05-27T10:06:04;3.40;;;2.73;;
9459;SDS011;4768;42.664;23.240;2023-05-27T10:08:32;4.13;;;2.93;;
9459;SDS011;4768;42.664;23.240;2023-05-27T10:10:58;3.27;;;2.97;;
9459;SDS011;4768;42.664;23.240;2023-05-27T10:13:26;3.40;;;2.77;;
9459;SDS011;4768;42.664;23.240;2023-05-27T10:15:55;3.17;;;2.87;;
9459;SDS011;4768;42.664;23.240;2023-05-27T10:18:22;4.53;;;2.73;;
9459;SDS011;4768;42.664;23.240;2023-05-27T10:20:49;3.40;;;2.40;;
9459;SDS011;4768;42.664;23.240;2023-05-27T10:23:18;4.03;;;3.00;;
9459;SDS011;4768;42.664;23.240;2023-05-27T10:25:47;3.00;;;2.70;;
9459;SDS011;4768;42.664;23.240;2023-05-27T10:28:23;3.80;;;2.97;;
9459;SDS011;4768;42.664;23.240;2023-05-27T10:30:51;3.37;;;2.90;;
9459;SDS011;4768;42.664;23.240;2023-05-27T10:33:27;3.03;;;2.73;;
9459;SDS011;4768;42.664;23.240;2023-05-27T10:35:55;3.93;;;2.87;;
9459;SDS011;4768;42.664;23.240;2023-05-27T10:38:21;2.83;;;2.57;;
9459;SDS011;4768;42.664;23.240;2023-05-27T10:40:48;3.30;;;2.93;;
9459;SDS011;4768;42.664;23.240;2023-05-27T10:43:26;3.70;;;2.70;;
9459;SDS011;4768;42.664;23.240;2023-05-27T10:46:00;3.60;;;3.07;;
9459;SDS011;4768;42.664;23.240;2023-05-27T10:48:29;3.10;;;2.83;;
9459;SDS011;4768;42.664;23.240;2023-05-27T10:50:58;3.53;;;3.07;;
9459;SDS011;4768;42.664;23.240;2023-05-27T10:53:25;4.20;;;2.90;;
9459;SDS011;4768;42.664;23.240;2023-05-27T10:55:52;5.93;;;2.80;;
9459;SDS011;4768;42.664;23.240;2023-05-27T10:58:20;5.00;;;2.97;;
9459;SDS011;4768;42.664;23.240;2023-05-27T11:00:48;3.50;;;3.13;;
9459;SDS011;4768;42.664;23.240;2023-05-27T11:03:16;3.67;;;2.83;;
9459;SDS011;4768;42.664;23.240;2023-05-27T11:05:45;3.57;;;2.90;;
9459;SDS011;4768;42.664;23.240;2023-05-27T11:08:11;3.23;;;2.93;;
9459;SDS011;4768;42.664;23.240;2023-05-27T11:10:39;4.17;;;3.10;;
9459;SDS011;4768;42.664;23.240;2023-05-27T11:13:07;3.53;;;3.13;;
9459;SDS011;4768;42.664;23.240;2023-05-27T11:15:34;4.17;;;3.17;;
9459;SDS011;4768;42.664;23.240;2023-05-27T11:18:01;2.57;;;2.37;;
9459;SDS011;4768;42.664;23.240;2023-05-27T11:20:34;3.30;;;3.00;;
9459;SDS011;4768;42.664;23.240;2023-05-27T11:23:03;3.37;;;2.63;;
9459;SDS011;4768;42.664;23.240;2023-05-27T11:25:40;3.20;;;2.90;;
9459;SDS011;4768;42.664;23.240;2023-05-27T11:28:12;5.30;;;3.20;;
9459;SDS011;4768;42.664;23.240;2023-05-27T11:30:39;3.20;;;2.87;;
9459;SDS011;4768;42.664;23.240;2023-05-27T11:33:06;4.20;;;2.90;;
9459;SDS011;4768;42.664;23.240;2023-05-27T11:35:33;3.37;;;3.07;;
9459;SDS011;4768;42.664;23.240;2023-05-27T11:38:00;3.73;;;3.10;;
9459;SDS011;4768;42.664;23.240;2023-05-27T11:40:34;3.07;;;2.77;;
9459;SDS011;4768;42.664;23.240;2023-05-27T11:43:01;3.10;;;2.80;;
9459;SDS011;4768;42.664;23.240;2023-05-27T11:45:28;4.10;;;2.97;;
9459;SDS011;4768;42.664;23.240;2023-05-27T11:47:56;3.43;;;2.60;;
9459;SDS011;4768;42.664;23.240;2023-05-27T11:50:24;3.53;;;3.23;;
9459;SDS011;4768;42.664;23.240;2023-05-27T11:52:52;3.10;;;2.80;;
9459;SDS011;4768;42.664;23.240;2023-05-27T11:55:20;5.40;;;3.33;;
9459;SDS011;4768;42.664;23.240;2023-05-27T11:57:48;3.67;;;3.27;;
9459;SDS011;4768;42.664;23.240;2023-05-27T12:00:16;3.17;;;2.87;;
9459;SDS011;4768;42.664;23.240;2023-05-27T12:02:44;4.37;;;3.17;;
9459;SDS011;4768;42.664;23.240;2023-05-27T12:05:11;3.45;;;3.08;;
9459;SDS011;4768;42.664;23.240;2023-05-27T12:07:38;3.60;;;2.90;;
9459;SDS011;4768;42.664;23.240;2023-05-27T12:10:06;3.30;;;3.00;;
9459;SDS011;4768;42.664;23.240;2023-05-27T12:12:34;3.40;;;3.10;;
9459;SDS011;4768;42.664;23.240;2023-05-27T12:15:04;3.37;;;3.07;;
9459;SDS011;4768;42.664;23.240;2023-05-27T12:17:32;3.27;;;2.97;;
9459;SDS011;4768;42.664;23.240;2023-05-27T12:19:59;4.53;;;3.08;;
9459;SDS011;4768;42.664;23.240;2023-05-27T12:22:25;3.20;;;2.90;;
9459;SDS011;4768;42.664;23.240;2023-05-27T12:24:52;3.00;;;2.70;;
9459;SDS011;4768;42.664;23.240;2023-05-27T12:27:19;3.50;;;2.57;;
9459;SDS011;4768;42.664;23.240;2023-05-27T12:29:46;3.03;;;2.50;;
9459;SDS011;4768;42.664;23.240;2023-05-27T12:32:14;4.47;;;2.60;;
9459;SDS011;4768;42.664;23.240;2023-05-27T12:34:41;4.30;;;2.70;;
9459;SDS011;4768;42.664;23.240;2023-05-27T12:37:07;3.50;;;3.17;;
9459;SDS011;4768;42.664;23.240;2023-05-27T12:39:34;2.93;;;2.63;;
9459;SDS011;4768;42.664;23.240;2023-05-27T12:42:01;3.37;;;3.07;;
9459;SDS011;4768;42.664;23.240;2023-05-27T12:44:28;3.20;;;2.90;;
9459;SDS011;4768;42.664;23.240;2023-05-27T12:46:54;3.20;;;2.87;;
9459;SDS011;4768;42.664;23.240;2023-05-27T12:49:23;3.80;;;2.87;;
9459;SDS011;4768;42.664;23.240;2023-05-27T12:51:49;3.87;;;2.90;;
9459;SDS011;4768;42.664;23.240;2023-05-27T12:54:16;3.15;;;2.85;;
9459;SDS011;4768;42.664;23.240;2023-05-27T12:56:43;3.17;;;2.87;;
9459;SDS011;4768;42.664;23.240;2023-05-27T12:59:09;3.38;;;2.72;;
9459;SDS011;4768;42.664;23.240;2023-05-27T13:01:36;4.10;;;2.47;;
9459;SDS011;4768;42.664;23.240;2023-05-27T13:04:03;3.55;;;3.25;;
9459;SDS011;4768;42.664;23.240;2023-05-27T13:06:31;3.45;;;2.85;;
9459;SDS011;4768;42.664;23.240;2023-05-27T13:08:58;4.43;;;3.58;;
9459;SDS011;4768;42.664;23.240;2023-05-27T13:11:24;3.85;;;2.90;;
9459;SDS011;4768;42.664;23.240;2023-05-27T13:13:51;3.70;;;3.05;;
9459;SDS011;4768;42.664;23.240;2023-05-27T13:16:18;4.38;;;2.80;;
9459;SDS011;4768;42.664;23.240;2023-05-27T13:18:45;4.20;;;3.05;;
9459;SDS011;4768;42.664;23.240;2023-05-27T13:21:11;2.85;;;2.55;;
9459;SDS011;4768;42.664;23.240;2023-05-27T13:23:39;4.65;;;2.60;;
9459;SDS011;4768;42.664;23.240;2023-05-27T13:26:06;3.85;;;3.03;;
9459;SDS011;4768;42.664;23.240;2023-05-27T13:28:33;3.28;;;2.97;;
9459;SDS011;4768;42.664;23.240;2023-05-27T13:31:00;2.70;;;2.50;;
9459;SDS011;4768;42.664;23.240;2023-05-27T13:33:28;3.30;;;3.00;;
9459;SDS011;4768;42.664;23.240;2023-05-27T13:35:55;3.17;;;2.80;;
9459;SDS011;4768;42.664;23.240;2023-05-27T13:38:22;3.27;;;2.97;;
9459;SDS011;4768;42.664;23.240;2023-05-27T13:40:50;2.97;;;2.60;;
9459;SDS011;4768;42.664;23.240;2023-05-27T13:43:17;3.00;;;2.60;;
9459;SDS011;4768;42.664;23.240;2023-05-27T13:45:44;3.55;;;2.72;;
9459;SDS011;4768;42.664;23.240;2023-05-27T13:48:10;3.40;;;3.10;;
9459;SDS011;4768;42.664;23.240;2023-05-27T13:50:37;3.05;;;2.75;;
9459;SDS011;4768;42.664;23.240;2023-05-27T13:53:04;2.85;;;2.65;;
9459;SDS011;4768;42.664;23.240;2023-05-27T13:55:30;3.05;;;2.70;;
9459;SDS011;4768;42.664;23.240;2023-05-27T13:57:58;2.72;;;2.50;;
9459;SDS011;4768;42.664;23.240;2023-05-27T14:00:25;4.45;;;2.83;;
9459;SDS011;4768;42.664;23.240;2023-05-27T14:02:52;2.90;;;2.60;;
9459;SDS011;4768;42.664;23.240;2023-05-27T14:05:19;3.25;;;2.95;;
9459;SDS011;4768;42.664;23.240;2023-05-27T14:07:46;3.80;;;3.08;;
9459;SDS011;4768;42.664;23.240;2023-05-27T14:10:13;2.73;;;2.50;;
9459;SDS011;4768;42.664;23.240;2023-05-27T14:12:40;3.05;;;2.75;;
9459;SDS011;4768;42.664;23.240;2023-05-27T14:15:08;3.10;;;2.80;;
9459;SDS011;4768;42.664;23.240;2023-05-27T14:17:36;2.60;;;2.40;;
9459;SDS011;4768;42.664;23.240;2023-05-27T14:20:03;3.33;;;2.80;;
9459;SDS011;4768;42.664;23.240;2023-05-27T14:22:35;2.80;;;2.58;;
9459;SDS011;4768;42.664;23.240;2023-05-27T14:25:02;2.60;;;2.40;;
9459;SDS011;4768;42.664;23.240;2023-05-27T14:27:30;3.13;;;2.63;;
9459;SDS011;4768;42.664;23.240;2023-05-27T14:29:56;2.95;;;2.63;;
9459;SDS011;4768;42.664;23.240;2023-05-27T14:32:25;3.60;;;2.70;;
9459;SDS011;4768;42.664;23.240;2023-05-27T14:34:51;3.10;;;2.80;;
9459;SDS011;4768;42.664;23.240;2023-05-27T14:37:20;3.35;;;3.05;;
9459;SDS011;4768;42.664;23.240;2023-05-27T14:39:47;3.08;;;2.58;;
9459;SDS011;4768;42.664;23.240;2023-05-27T14:42:14;2.85;;;2.50;;
9459;SDS011;4768;42.664;23.240;2023-05-27T14:44:40;3.58;;;2.80;;
9459;SDS011;4768;42.664;23.240;2023-05-27T14:47:07;3.95;;;2.78;;
9459;SDS011;4768;42.664;23.240;2023-05-27T14:49:37;3.35;;;2.97;;
9459;SDS011;4768;42.664;23.240;2023-05-27T14:52:04;3.10;;;2.50;;
9459;SDS011;4768;42.664;23.240;2023-05-27T14:54:30;2.72;;;2.53;;
9459;SDS011;4768;42.664;23.240;2023-05-27T14:56:57;5.13;;;2.88;;
9459;SDS011;4768;42.664;23.240;2023-05-27T14:59:24;3.78;;;2.65;;
9459;SDS011;4768;42.664;23.240;2023-05-27T15:01:51;3.10;;;2.80;;